sensor_id;sensor_type;location;lat;lon;timestamp;P1;durP1;ratioP1;P2;durP2;ratioP2
40945;SDS011;55635;50.264;11.918;2023-01-20T00:00:00;36.55;;;16.73;;
40945;SDS011;55635;50.264;11.918;2023-01-20T00:02:52;33.50;;;15.95;;
40945;SDS011;55635;50.264;11.918;2023-01-20T00:05:33;35.60;;;15.93;;
40945;SDS011;55635;50.264;11.918;2023-01-20T00:08:14;31.40;;;15.13;;
40945;SDS011;55635;50.264;11.918;2023-01-20T00:10:55;30.77;;;16.45;;
40945;SDS011;55635;50.264;11.918;2023-01-20T00:13:36;34.03;;;15.73;;
40945;SDS011;55635;50.264;11.918;2023-01-20T00:16:18;29.65;;;14.68;;
40945;SDS011;55635;50.264;11.918;2023-01-20T00:18:59;32.30;;;15.68;;
40945;SDS011;55635;50.264;11.918;2023-01-20T00:21:40;32.05;;;15.20;;
40945;SDS011;55635;50.264;11.918;2023-01-20T00:24:22;28.20;;;15.18;;
40945;SDS011;55635;50.264;11.918;2023-01-20T00:27:03;33.35;;;15.38;;
40945;SDS011;55635;50.264;11.918;2023-01-20T00:29:45;32.30;;;14.63;;
40945;SDS011;55635;50.264;11.918;2023-01-20T00:32:26;31.17;;;15.15;;
40945;SDS011;55635;50.264;11.918;2023-01-20T00:35:07;29.73;;;14.38;;
40945;SDS011;55635;50.264;11.918;2023-01-20T00:37:49;36.90;;;16.02;;
40945;SDS011;55635;50.264;11.918;2023-01-20T00:40:30;29.88;;;15.20;;
40945;SDS011;55635;50.264;11.918;2023-01-20T00:43:12;27.40;;;13.48;;
40945;SDS011;55635;50.264;11.918;2023-01-20T00:45:52;33.55;;;15.85;;
40945;SDS011;55635;50.264;11.918;2023-01-20T00:48:34;31.65;;;14.35;;
40945;SDS011;55635;50.264;11.918;2023-01-20T00:51:15;27.77;;;13.70;;
40945;SDS011;55635;50.264;11.918;2023-01-20T00:53:56;30.08;;;14.70;;
40945;SDS011;55635;50.264;11.918;2023-01-20T00:56:38;33.67;;;14.98;;
40945;SDS011;55635;50.264;11.918;2023-01-20T00:59:19;39.13;;;15.95;;
40945;SDS011;55635;50.264;11.918;2023-01-20T01:02:00;32.33;;;15.10;;
40945;SDS011;55635;50.264;11.918;2023-01-20T01:04:42;36.97;;;16.67;;
40945;SDS011;55635;50.264;11.918;2023-01-20T01:07:23;33.70;;;15.65;;
40945;SDS011;55635;50.264;11.918;2023-01-20T01:10:04;29.42;;;14.25;;
40945;SDS011;55635;50.264;11.918;2023-01-20T01:12:46;32.55;;;15.82;;
40945;SDS011;55635;50.264;11.918;2023-01-20T01:15:27;34.85;;;17.50;;
40945;SDS011;55635;50.264;11.918;2023-01-20T01:18:08;35.33;;;16.15;;
40945;SDS011;55635;50.264;11.918;2023-01-20T01:20:49;37.83;;;16.95;;
40945;SDS011;55635;50.264;11.918;2023-01-20T01:23:30;37.92;;;16.27;;
40945;SDS011;55635;50.264;11.918;2023-01-20T01:26:11;34.65;;;16.77;;
40945;SDS011;55635;50.264;11.918;2023-01-20T01:28:53;37.33;;;15.65;;
40945;SDS011;55635;50.264;11.918;2023-01-20T01:31:34;44.13;;;19.23;;
40945;SDS011;55635;50.264;11.918;2023-01-20T01:34:15;40.75;;;18.63;;
40945;SDS011;55635;50.264;11.918;2023-01-20T01:36:56;37.97;;;16.83;;
40945;SDS011;55635;50.264;11.918;2023-01-20T01:39:37;34.67;;;16.27;;
40945;SDS011;55635;50.264;11.918;2023-01-20T01:42:21;35.22;;;17.33;;
40945;SDS011;55635;50.264;11.918;2023-01-20T01:47:53;36.95;;;17.67;;
40945;SDS011;55635;50.264;11.918;2023-01-20T01:50:51;44.42;;;19.25;;
40945;SDS011;55635;50.264;11.918;2023-01-20T01:53:41;42.80;;;18.07;;
40945;SDS011;55635;50.264;11.918;2023-01-20T01:56:26;40.33;;;17.95;;
40945;SDS011;55635;50.264;11.918;2023-01-20T01:59:09;39.15;;;17.50;;
40945;SDS011;55635;50.264;11.918;2023-01-20T02:01:52;38.15;;;18.02;;
40945;SDS011;55635;50.264;11.918;2023-01-20T02:04:34;44.35;;;18.67;;
40945;SDS011;55635;50.264;11.918;2023-01-20T02:07:18;40.40;;;18.10;;
40945;SDS011;55635;50.264;11.918;2023-01-20T02:10:00;39.13;;;17.50;;
40945;SDS011;55635;50.264;11.918;2023-01-20T02:12:42;40.97;;;17.33;;
40945;SDS011;55635;50.264;11.918;2023-01-20T02:25:08;38.15;;;16.55;;
40945;SDS011;55635;50.264;11.918;2023-01-20T02:28:19;34.10;;;15.05;;
40945;SDS011;55635;50.264;11.918;2023-01-20T02:34:58;37.40;;;17.73;;
40945;SDS011;55635;50.264;11.918;2023-01-20T02:37:47;45.72;;;19.40;;
40945;SDS011;55635;50.264;11.918;2023-01-20T02:40:53;43.65;;;17.95;;
40945;SDS011;55635;50.264;11.918;2023-01-20T02:46:34;40.03;;;18.15;;
40945;SDS011;55635;50.264;11.918;2023-01-20T02:49:30;36.03;;;16.98;;
40945;SDS011;55635;50.264;11.918;2023-01-20T02:52:30;46.17;;;19.40;;
40945;SDS011;55635;50.264;11.918;2023-01-20T02:55:27;43.75;;;18.98;;
40945;SDS011;55635;50.264;11.918;2023-01-20T02:58:44;41.42;;;17.58;;
40945;SDS011;55635;50.264;11.918;2023-01-20T03:01:33;38.72;;;16.27;;
40945;SDS011;55635;50.264;11.918;2023-01-20T03:04:21;33.78;;;15.88;;
40945;SDS011;55635;50.264;11.918;2023-01-20T03:07:08;30.63;;;14.73;;
40945;SDS011;55635;50.264;11.918;2023-01-20T03:09:52;27.45;;;13.35;;
40945;SDS011;55635;50.264;11.918;2023-01-20T03:12:48;30.20;;;13.93;;
40945;SDS011;55635;50.264;11.918;2023-01-20T03:15:42;28.50;;;14.30;;
40945;SDS011;55635;50.264;11.918;2023-01-20T03:18:47;32.13;;;14.55;;
40945;SDS011;55635;50.264;11.918;2023-01-20T03:21:29;33.00;;;14.55;;
40945;SDS011;55635;50.264;11.918;2023-01-20T03:24:13;34.10;;;15.18;;
40945;SDS011;55635;50.264;11.918;2023-01-20T03:26:54;30.15;;;13.88;;
40945;SDS011;55635;50.264;11.918;2023-01-20T03:29:37;36.60;;;15.02;;
40945;SDS011;55635;50.264;11.918;2023-01-20T03:32:18;30.08;;;13.63;;
40945;SDS011;55635;50.264;11.918;2023-01-20T03:35:06;30.58;;;14.20;;
40945;SDS011;55635;50.264;11.918;2023-01-20T03:37:47;30.20;;;13.93;;
40945;SDS011;55635;50.264;11.918;2023-01-20T03:40:29;31.88;;;14.43;;
40945;SDS011;55635;50.264;11.918;2023-01-20T03:43:21;31.02;;;13.77;;
40945;SDS011;55635;50.264;11.918;2023-01-20T03:46:57;27.45;;;13.65;;
40945;SDS011;55635;50.264;11.918;2023-01-20T03:52:48;33.92;;;15.18;;
40945;SDS011;55635;50.264;11.918;2023-01-20T03:55:45;28.35;;;13.48;;
40945;SDS011;55635;50.264;11.918;2023-01-20T03:58:34;26.77;;;13.23;;
40945;SDS011;55635;50.264;11.918;2023-01-20T04:01:21;28.20;;;14.05;;
40945;SDS011;55635;50.264;11.918;2023-01-20T04:04:10;27.58;;;13.48;;
40945;SDS011;55635;50.264;11.918;2023-01-20T04:06:56;30.02;;;13.63;;
40945;SDS011;55635;50.264;11.918;2023-01-20T04:09:38;27.83;;;13.80;;
40945;SDS011;55635;50.264;11.918;2023-01-20T04:12:24;34.83;;;13.95;;
40945;SDS011;55635;50.264;11.918;2023-01-20T04:15:05;31.75;;;13.60;;
40945;SDS011;55635;50.264;11.918;2023-01-20T04:17:50;33.35;;;14.05;;
40945;SDS011;55635;50.264;11.918;2023-01-20T04:20:31;30.88;;;13.55;;
40945;SDS011;55635;50.264;11.918;2023-01-20T04:23:17;30.80;;;14.18;;
40945;SDS011;55635;50.264;11.918;2023-01-20T04:26:04;32.97;;;15.05;;
40945;SDS011;55635;50.264;11.918;2023-01-20T04:28:45;31.35;;;14.98;;
40945;SDS011;55635;50.264;11.918;2023-01-20T04:31:26;31.85;;;15.07;;
40945;SDS011;55635;50.264;11.918;2023-01-20T04:34:08;32.50;;;14.43;;
40945;SDS011;55635;50.264;11.918;2023-01-20T04:36:52;31.42;;;14.68;;
40945;SDS011;55635;50.264;11.918;2023-01-20T04:39:33;26.83;;;14.13;;
40945;SDS011;55635;50.264;11.918;2023-01-20T04:42:15;26.63;;;13.95;;
40945;SDS011;55635;50.264;11.918;2023-01-20T04:44:56;30.20;;;13.75;;
40945;SDS011;55635;50.264;11.918;2023-01-20T04:47:38;32.80;;;14.65;;
40945;SDS011;55635;50.264;11.918;2023-01-20T04:50:19;37.22;;;17.42;;
40945;SDS011;55635;50.264;11.918;2023-01-20T04:53:00;32.22;;;14.45;;
40945;SDS011;55635;50.264;11.918;2023-01-20T04:55:41;29.55;;;13.93;;
40945;SDS011;55635;50.264;11.918;2023-01-20T04:58:22;23.20;;;13.10;;
40945;SDS011;55635;50.264;11.918;2023-01-20T05:01:03;31.65;;;14.52;;
40945;SDS011;55635;50.264;11.918;2023-01-20T05:03:44;26.67;;;13.98;;
40945;SDS011;55635;50.264;11.918;2023-01-20T05:06:25;30.70;;;15.00;;
40945;SDS011;55635;50.264;11.918;2023-01-20T05:09:06;29.88;;;14.55;;
40945;SDS011;55635;50.264;11.918;2023-01-20T05:11:51;26.02;;;12.88;;
40945;SDS011;55635;50.264;11.918;2023-01-20T05:14:32;28.88;;;13.32;;
40945;SDS011;55635;50.264;11.918;2023-01-20T05:17:13;27.50;;;13.55;;
40945;SDS011;55635;50.264;11.918;2023-01-20T05:19:54;26.50;;;13.35;;
40945;SDS011;55635;50.264;11.918;2023-01-20T05:22:35;27.98;;;13.02;;
40945;SDS011;55635;50.264;11.918;2023-01-20T05:25:16;25.90;;;13.57;;
40945;SDS011;55635;50.264;11.918;2023-01-20T05:27:57;28.35;;;14.43;;
40945;SDS011;55635;50.264;11.918;2023-01-20T05:30:39;35.35;;;15.75;;
40945;SDS011;55635;50.264;11.918;2023-01-20T05:33:20;31.92;;;16.13;;
40945;SDS011;55635;50.264;11.918;2023-01-20T05:36:05;31.67;;;15.43;;
40945;SDS011;55635;50.264;11.918;2023-01-20T05:38:46;29.77;;;13.93;;
40945;SDS011;55635;50.264;11.918;2023-01-20T05:41:27;35.03;;;15.52;;
40945;SDS011;55635;50.264;11.918;2023-01-20T05:44:08;32.60;;;15.43;;
40945;SDS011;55635;50.264;11.918;2023-01-20T05:46:50;31.80;;;14.52;;
40945;SDS011;55635;50.264;11.918;2023-01-20T05:49:31;29.45;;;14.70;;
40945;SDS011;55635;50.264;11.918;2023-01-20T05:52:12;33.40;;;15.30;;
40945;SDS011;55635;50.264;11.918;2023-01-20T05:54:53;29.52;;;15.35;;
40945;SDS011;55635;50.264;11.918;2023-01-20T05:57:34;33.60;;;15.57;;
40945;SDS011;55635;50.264;11.918;2023-01-20T06:00:15;31.77;;;14.15;;
40945;SDS011;55635;50.264;11.918;2023-01-20T06:02:57;36.22;;;16.42;;
40945;SDS011;55635;50.264;11.918;2023-01-20T06:05:39;25.67;;;13.77;;
40945;SDS011;55635;50.264;11.918;2023-01-20T06:08:20;27.23;;;13.82;;
40945;SDS011;55635;50.264;11.918;2023-01-20T06:11:01;34.25;;;15.65;;
40945;SDS011;55635;50.264;11.918;2023-01-20T06:13:42;29.50;;;14.32;;
40945;SDS011;55635;50.264;11.918;2023-01-20T06:16:25;34.90;;;16.00;;
40945;SDS011;55635;50.264;11.918;2023-01-20T06:19:06;31.73;;;16.30;;
40945;SDS011;55635;50.264;11.918;2023-01-20T06:21:47;35.00;;;17.05;;
40945;SDS011;55635;50.264;11.918;2023-01-20T06:24:28;33.83;;;15.77;;
40945;SDS011;55635;50.264;11.918;2023-01-20T06:27:09;37.58;;;17.00;;
40945;SDS011;55635;50.264;11.918;2023-01-20T06:29:51;33.63;;;16.83;;
40945;SDS011;55635;50.264;11.918;2023-01-20T06:32:31;41.30;;;19.00;;
40945;SDS011;55635;50.264;11.918;2023-01-20T06:35:13;36.33;;;17.42;;
40945;SDS011;55635;50.264;11.918;2023-01-20T06:37:56;41.20;;;19.80;;
40945;SDS011;55635;50.264;11.918;2023-01-20T06:40:38;39.60;;;18.10;;
40945;SDS011;55635;50.264;11.918;2023-01-20T06:43:19;39.97;;;18.15;;
40945;SDS011;55635;50.264;11.918;2023-01-20T06:46:00;41.10;;;17.33;;
40945;SDS011;55635;50.264;11.918;2023-01-20T06:48:43;45.75;;;20.40;;
40945;SDS011;55635;50.264;11.918;2023-01-20T06:51:26;42.75;;;18.70;;
40945;SDS011;55635;50.264;11.918;2023-01-20T06:54:08;53.13;;;22.80;;
40945;SDS011;55635;50.264;11.918;2023-01-20T06:56:49;50.42;;;22.55;;
40945;SDS011;55635;50.264;11.918;2023-01-20T06:59:30;48.88;;;21.65;;
40945;SDS011;55635;50.264;11.918;2023-01-20T07:02:11;42.08;;;20.10;;
40945;SDS011;55635;50.264;11.918;2023-01-20T07:04:52;54.88;;;23.50;;
40945;SDS011;55635;50.264;11.918;2023-01-20T07:07:33;72.93;;;28.33;;
40945;SDS011;55635;50.264;11.918;2023-01-20T07:10:14;53.65;;;23.80;;
40945;SDS011;55635;50.264;11.918;2023-01-20T07:12:56;49.88;;;20.90;;
40945;SDS011;55635;50.264;11.918;2023-01-20T07:15:37;54.83;;;21.88;;
40945;SDS011;55635;50.264;11.918;2023-01-20T07:18:18;90.75;;;36.20;;
40945;SDS011;55635;50.264;11.918;2023-01-20T07:20:59;91.05;;;33.70;;
40945;SDS011;55635;50.264;11.918;2023-01-20T07:23:40;63.25;;;25.48;;
40945;SDS011;55635;50.264;11.918;2023-01-20T07:26:22;54.65;;;22.80;;
40945;SDS011;55635;50.264;11.918;2023-01-20T07:29:05;72.90;;;28.52;;
40945;SDS011;55635;50.264;11.918;2023-01-20T07:31:46;78.88;;;29.52;;
40945;SDS011;55635;50.264;11.918;2023-01-20T07:34:27;60.47;;;24.05;;
40945;SDS011;55635;50.264;11.918;2023-01-20T07:37:08;36.20;;;17.10;;
40945;SDS011;55635;50.264;11.918;2023-01-20T07:39:50;32.92;;;15.30;;
40945;SDS011;55635;50.264;11.918;2023-01-20T07:42:31;37.17;;;17.08;;
40945;SDS011;55635;50.264;11.918;2023-01-20T07:45:12;31.95;;;15.98;;
40945;SDS011;55635;50.264;11.918;2023-01-20T07:47:54;26.67;;;14.07;;
40945;SDS011;55635;50.264;11.918;2023-01-20T07:50:36;30.92;;;13.88;;
40945;SDS011;55635;50.264;11.918;2023-01-20T07:53:17;26.30;;;13.60;;
40945;SDS011;55635;50.264;11.918;2023-01-20T07:56:03;30.90;;;14.07;;
40945;SDS011;55635;50.264;11.918;2023-01-20T07:58:51;33.05;;;14.25;;
40945;SDS011;55635;50.264;11.918;2023-01-20T08:01:33;30.10;;;14.77;;
40945;SDS011;55635;50.264;11.918;2023-01-20T08:04:14;31.73;;;15.40;;
40945;SDS011;55635;50.264;11.918;2023-01-20T08:06:57;32.88;;;14.60;;
40945;SDS011;55635;50.264;11.918;2023-01-20T08:09:37;31.83;;;14.20;;
40945;SDS011;55635;50.264;11.918;2023-01-20T08:12:20;35.00;;;17.02;;
40945;SDS011;55635;50.264;11.918;2023-01-20T08:15:02;35.40;;;16.63;;
40945;SDS011;55635;50.264;11.918;2023-01-20T08:17:44;34.80;;;15.85;;
40945;SDS011;55635;50.264;11.918;2023-01-20T08:20:25;34.15;;;16.20;;
40945;SDS011;55635;50.264;11.918;2023-01-20T08:23:06;31.27;;;16.27;;
40945;SDS011;55635;50.264;11.918;2023-01-20T08:25:47;30.00;;;16.33;;
40945;SDS011;55635;50.264;11.918;2023-01-20T08:28:42;33.78;;;16.95;;
40945;SDS011;55635;50.264;11.918;2023-01-20T08:31:23;32.42;;;16.15;;
40945;SDS011;55635;50.264;11.918;2023-01-20T08:34:04;32.55;;;15.75;;
40945;SDS011;55635;50.264;11.918;2023-01-20T08:36:45;30.08;;;16.13;;
40945;SDS011;55635;50.264;11.918;2023-01-20T08:39:27;37.50;;;17.35;;
40945;SDS011;55635;50.264;11.918;2023-01-20T08:42:08;33.63;;;17.83;;
40945;SDS011;55635;50.264;11.918;2023-01-20T08:44:52;41.05;;;20.75;;
40945;SDS011;55635;50.264;11.918;2023-01-20T08:47:37;35.92;;;17.30;;
40945;SDS011;55635;50.264;11.918;2023-01-20T08:53:04;38.17;;;19.67;;
40945;SDS011;55635;50.264;11.918;2023-01-20T08:55:53;43.53;;;21.45;;
40945;SDS011;55635;50.264;11.918;2023-01-20T08:58:36;40.00;;;20.65;;
40945;SDS011;55635;50.264;11.918;2023-01-20T09:01:18;38.47;;;20.23;;
40945;SDS011;55635;50.264;11.918;2023-01-20T09:04:02;33.63;;;17.38;;
40945;SDS011;55635;50.264;11.918;2023-01-20T09:06:45;32.03;;;17.80;;
40945;SDS011;55635;50.264;11.918;2023-01-20T09:09:29;32.58;;;17.33;;
40945;SDS011;55635;50.264;11.918;2023-01-20T09:12:10;26.90;;;15.80;;
40945;SDS011;55635;50.264;11.918;2023-01-20T09:14:52;28.63;;;15.70;;
40945;SDS011;55635;50.264;11.918;2023-01-20T09:17:35;27.42;;;15.75;;
40945;SDS011;55635;50.264;11.918;2023-01-20T09:20:19;26.63;;;16.08;;
40945;SDS011;55635;50.264;11.918;2023-01-20T09:23:00;29.08;;;16.42;;
40945;SDS011;55635;50.264;11.918;2023-01-20T09:25:42;30.27;;;16.00;;
40945;SDS011;55635;50.264;11.918;2023-01-20T09:28:23;27.13;;;16.10;;
40945;SDS011;55635;50.264;11.918;2023-01-20T09:31:05;31.77;;;18.02;;
40945;SDS011;55635;50.264;11.918;2023-01-20T09:33:48;34.80;;;18.67;;
40945;SDS011;55635;50.264;11.918;2023-01-20T09:36:29;27.00;;;15.65;;
40945;SDS011;55635;50.264;11.918;2023-01-20T09:39:12;33.75;;;16.48;;
40945;SDS011;55635;50.264;11.918;2023-01-20T09:53:16;32.97;;;18.83;;
40945;SDS011;55635;50.264;11.918;2023-01-20T09:56:15;31.63;;;17.55;;
40945;SDS011;55635;50.264;11.918;2023-01-20T09:59:17;31.80;;;17.90;;
40945;SDS011;55635;50.264;11.918;2023-01-20T10:02:23;33.33;;;18.35;;
40945;SDS011;55635;50.264;11.918;2023-01-20T10:05:12;35.38;;;19.35;;
40945;SDS011;55635;50.264;11.918;2023-01-20T10:08:01;33.17;;;18.48;;
40945;SDS011;55635;50.264;11.918;2023-01-20T10:11:06;36.15;;;19.23;;
40945;SDS011;55635;50.264;11.918;2023-01-20T10:13:52;31.15;;;17.15;;
40945;SDS011;55635;50.264;11.918;2023-01-20T10:17:06;34.45;;;18.33;;
40945;SDS011;55635;50.264;11.918;2023-01-20T10:20:13;33.88;;;19.38;;
40945;SDS011;55635;50.264;11.918;2023-01-20T10:23:50;33.42;;;17.88;;
40945;SDS011;55635;50.264;11.918;2023-01-20T10:27:09;31.05;;;17.30;;
40945;SDS011;55635;50.264;11.918;2023-01-20T10:29:56;35.65;;;18.70;;
40945;SDS011;55635;50.264;11.918;2023-01-20T10:32:49;36.92;;;19.85;;
40945;SDS011;55635;50.264;11.918;2023-01-20T10:35:51;33.97;;;19.52;;
40945;SDS011;55635;50.264;11.918;2023-01-20T10:41:45;30.95;;;19.30;;
40945;SDS011;55635;50.264;11.918;2023-01-20T10:44:34;34.33;;;19.90;;
40945;SDS011;55635;50.264;11.918;2023-01-20T10:47:16;38.40;;;18.95;;
40945;SDS011;55635;50.264;11.918;2023-01-20T10:50:35;34.83;;;20.15;;
40945;SDS011;55635;50.264;11.918;2023-01-20T10:56:34;35.17;;;19.45;;
40945;SDS011;55635;50.264;11.918;2023-01-20T10:59:25;39.28;;;20.90;;
40945;SDS011;55635;50.264;11.918;2023-01-20T11:02:17;31.20;;;18.92;;
40945;SDS011;55635;50.264;11.918;2023-01-20T11:05:15;33.30;;;18.92;;
40945;SDS011;55635;50.264;11.918;2023-01-20T11:08:13;31.17;;;20.00;;
40945;SDS011;55635;50.264;11.918;2023-01-20T11:11:14;37.58;;;18.98;;
40945;SDS011;55635;50.264;11.918;2023-01-20T11:14:01;28.73;;;17.77;;
40945;SDS011;55635;50.264;11.918;2023-01-20T11:16:42;34.58;;;17.23;;
40945;SDS011;55635;50.264;11.918;2023-01-20T11:19:30;32.42;;;18.20;;
40945;SDS011;55635;50.264;11.918;2023-01-20T11:22:36;33.45;;;17.55;;
40945;SDS011;55635;50.264;11.918;2023-01-20T11:25:21;22.13;;;12.82;;
40945;SDS011;55635;50.264;11.918;2023-01-20T11:28:13;27.83;;;15.68;;
40945;SDS011;55635;50.264;11.918;2023-01-20T11:30:57;15.73;;;10.27;;
40945;SDS011;55635;50.264;11.918;2023-01-20T11:33:38;25.17;;;13.10;;
40945;SDS011;55635;50.264;11.918;2023-01-20T11:36:19;23.10;;;11.20;;
40945;SDS011;55635;50.264;11.918;2023-01-20T11:39:04;18.65;;;9.10;;
40945;SDS011;55635;50.264;11.918;2023-01-20T11:42:16;21.00;;;12.00;;
40945;SDS011;55635;50.264;11.918;2023-01-20T11:45:01;21.33;;;12.02;;
40945;SDS011;55635;50.264;11.918;2023-01-20T11:47:43;25.05;;;11.38;;
40945;SDS011;55635;50.264;11.918;2023-01-20T11:51:13;21.85;;;11.60;;
40945;SDS011;55635;50.264;11.918;2023-01-20T11:53:40;34.67;;;14.63;;
40945;SDS011;55635;50.264;11.918;2023-01-20T11:56:23;36.55;;;15.75;;
40945;SDS011;55635;50.264;11.918;2023-01-20T11:59:15;20.73;;;11.73;;
40945;SDS011;55635;50.264;11.918;2023-01-20T12:05:02;45.13;;;21.48;;
40945;SDS011;55635;50.264;11.918;2023-01-20T12:07:57;17.30;;;10.70;;
40945;SDS011;55635;50.264;11.918;2023-01-20T12:10:39;16.50;;;9.68;;
40945;SDS011;55635;50.264;11.918;2023-01-20T12:13:25;18.23;;;8.40;;
40945;SDS011;55635;50.264;11.918;2023-01-20T12:16:32;12.98;;;9.02;;
40945;SDS011;55635;50.264;11.918;2023-01-20T12:19:14;13.85;;;8.57;;
40945;SDS011;55635;50.264;11.918;2023-01-20T12:22:03;15.83;;;7.33;;
40945;SDS011;55635;50.264;11.918;2023-01-20T12:24:57;13.82;;;7.50;;
40945;SDS011;55635;50.264;11.918;2023-01-20T12:27:53;7.68;;;6.05;;
40945;SDS011;55635;50.264;11.918;2023-01-20T12:31:00;10.07;;;6.28;;
40945;SDS011;55635;50.264;11.918;2023-01-20T12:33:43;8.85;;;6.00;;
40945;SDS011;55635;50.264;11.918;2023-01-20T12:40:00;12.32;;;6.07;;
40945;SDS011;55635;50.264;11.918;2023-01-20T12:45:49;12.82;;;6.55;;
40945;SDS011;55635;50.264;11.918;2023-01-20T12:49:28;11.75;;;6.78;;
40945;SDS011;55635;50.264;11.918;2023-01-20T12:52:45;11.38;;;6.75;;
40945;SDS011;55635;50.264;11.918;2023-01-20T12:56:47;9.68;;;7.18;;
40945;SDS011;55635;50.264;11.918;2023-01-20T13:00:22;14.18;;;6.85;;
40945;SDS011;55635;50.264;11.918;2023-01-20T13:16:09;11.70;;;8.07;;
40945;SDS011;55635;50.264;11.918;2023-01-20T13:22:21;12.95;;;8.57;;
40945;SDS011;55635;50.264;11.918;2023-01-20T13:25:04;9.77;;;7.30;;
40945;SDS011;55635;50.264;11.918;2023-01-20T13:27:47;9.73;;;6.63;;
40945;SDS011;55635;50.264;11.918;2023-01-20T13:30:40;9.07;;;6.68;;
40945;SDS011;55635;50.264;11.918;2023-01-20T13:36:21;11.95;;;6.28;;
40945;SDS011;55635;50.264;11.918;2023-01-20T13:45:18;16.60;;;10.68;;
40945;SDS011;55635;50.264;11.918;2023-01-20T13:50:45;17.25;;;10.30;;
40945;SDS011;55635;50.264;11.918;2023-01-20T13:53:29;22.85;;;12.52;;
40945;SDS011;55635;50.264;11.918;2023-01-20T13:56:28;19.87;;;12.40;;
40945;SDS011;55635;50.264;11.918;2023-01-20T13:59:14;18.10;;;11.85;;
40945;SDS011;55635;50.264;11.918;2023-01-20T14:01:54;16.63;;;8.85;;
40945;SDS011;55635;50.264;11.918;2023-01-20T14:04:35;11.55;;;7.22;;
40945;SDS011;55635;50.264;11.918;2023-01-20T14:07:27;15.55;;;7.60;;
40945;SDS011;55635;50.264;11.918;2023-01-20T14:10:12;25.08;;;16.65;;
40945;SDS011;55635;50.264;11.918;2023-01-20T14:12:53;24.73;;;16.70;;
40945;SDS011;55635;50.264;11.918;2023-01-20T14:15:34;35.13;;;21.17;;
40945;SDS011;55635;50.264;11.918;2023-01-20T14:18:19;36.97;;;22.50;;
40945;SDS011;55635;50.264;11.918;2023-01-20T14:21:17;80.15;;;49.00;;
40945;SDS011;55635;50.264;11.918;2023-01-20T14:24:00;93.75;;;56.92;;
40945;SDS011;55635;50.264;11.918;2023-01-20T14:26:43;42.90;;;24.02;;
40945;SDS011;55635;50.264;11.918;2023-01-20T14:29:24;28.60;;;20.63;;
40945;SDS011;55635;50.264;11.918;2023-01-20T14:35:17;29.25;;;21.50;;
40945;SDS011;55635;50.264;11.918;2023-01-20T14:38:16;25.25;;;16.50;;
40945;SDS011;55635;50.264;11.918;2023-01-20T14:40:57;27.48;;;17.70;;
40945;SDS011;55635;50.264;11.918;2023-01-20T14:43:38;15.50;;;12.70;;
40945;SDS011;55635;50.264;11.918;2023-01-20T14:46:25;15.90;;;11.32;;
40945;SDS011;55635;50.264;11.918;2023-01-20T14:49:08;22.10;;;15.85;;
40945;SDS011;55635;50.264;11.918;2023-01-20T14:51:56;24.15;;;18.42;;
40945;SDS011;55635;50.264;11.918;2023-01-20T14:54:42;20.58;;;15.40;;
40945;SDS011;55635;50.264;11.918;2023-01-20T14:57:25;21.40;;;12.23;;
40945;SDS011;55635;50.264;11.918;2023-01-20T15:00:20;16.92;;;9.30;;
40945;SDS011;55635;50.264;11.918;2023-01-20T15:03:13;11.60;;;7.10;;
40945;SDS011;55635;50.264;11.918;2023-01-20T15:08:50;11.85;;;6.93;;
40945;SDS011;55635;50.264;11.918;2023-01-20T15:11:33;12.38;;;7.00;;
40945;SDS011;55635;50.264;11.918;2023-01-20T15:14:15;14.43;;;6.38;;
40945;SDS011;55635;50.264;11.918;2023-01-20T15:16:58;12.68;;;7.40;;
40945;SDS011;55635;50.264;11.918;2023-01-20T15:19:41;10.07;;;6.68;;
40945;SDS011;55635;50.264;11.918;2023-01-20T15:22:25;10.77;;;6.32;;
40945;SDS011;55635;50.264;11.918;2023-01-20T15:25:11;13.68;;;8.38;;
40945;SDS011;55635;50.264;11.918;2023-01-20T15:27:53;11.43;;;7.68;;
40945;SDS011;55635;50.264;11.918;2023-01-20T15:30:36;19.30;;;9.68;;
40945;SDS011;55635;50.264;11.918;2023-01-20T15:33:17;17.25;;;9.25;;
40945;SDS011;55635;50.264;11.918;2023-01-20T15:36:00;19.08;;;9.85;;
40945;SDS011;55635;50.264;11.918;2023-01-20T15:38:53;18.00;;;10.02;;
40945;SDS011;55635;50.264;11.918;2023-01-20T15:41:34;15.82;;;9.32;;
40945;SDS011;55635;50.264;11.918;2023-01-20T15:44:15;16.08;;;9.90;;
40945;SDS011;55635;50.264;11.918;2023-01-20T15:46:56;15.65;;;9.32;;
40945;SDS011;55635;50.264;11.918;2023-01-20T15:49:37;15.43;;;9.10;;
40945;SDS011;55635;50.264;11.918;2023-01-20T15:52:18;16.05;;;9.93;;
40945;SDS011;55635;50.264;11.918;2023-01-20T15:54:59;12.73;;;8.15;;
40945;SDS011;55635;50.264;11.918;2023-01-20T15:57:40;20.92;;;12.13;;
40945;SDS011;55635;50.264;11.918;2023-01-20T16:00:22;52.85;;;24.85;;
40945;SDS011;55635;50.264;11.918;2023-01-20T16:03:03;170.52;;;70.50;;
40945;SDS011;55635;50.264;11.918;2023-01-20T16:05:46;215.05;;;87.45;;
40945;SDS011;55635;50.264;11.918;2023-01-20T16:08:32;83.43;;;39.88;;
40945;SDS011;55635;50.264;11.918;2023-01-20T16:11:17;51.25;;;28.80;;
40945;SDS011;55635;50.264;11.918;2023-01-20T16:13:59;46.35;;;26.15;;
40945;SDS011;55635;50.264;11.918;2023-01-20T16:16:39;37.25;;;22.60;;
40945;SDS011;55635;50.264;11.918;2023-01-20T16:19:20;29.00;;;18.52;;
40945;SDS011;55635;50.264;11.918;2023-01-20T16:22:01;29.98;;;15.43;;
40945;SDS011;55635;50.264;11.918;2023-01-20T16:24:42;27.30;;;15.38;;
40945;SDS011;55635;50.264;11.918;2023-01-20T16:27:23;22.20;;;11.80;;
40945;SDS011;55635;50.264;11.918;2023-01-20T16:30:04;21.35;;;12.57;;
40945;SDS011;55635;50.264;11.918;2023-01-20T16:32:46;24.13;;;13.18;;
40945;SDS011;55635;50.264;11.918;2023-01-20T16:35:27;23.33;;;12.95;;
40945;SDS011;55635;50.264;11.918;2023-01-20T16:38:10;27.85;;;13.40;;
40945;SDS011;55635;50.264;11.918;2023-01-20T16:41:02;26.35;;;13.18;;
40945;SDS011;55635;50.264;11.918;2023-01-20T16:44:02;51.08;;;25.23;;
40945;SDS011;55635;50.264;11.918;2023-01-20T16:46:44;22.95;;;12.05;;
40945;SDS011;55635;50.264;11.918;2023-01-20T16:49:28;24.63;;;11.65;;
40945;SDS011;55635;50.264;11.918;2023-01-20T16:52:10;20.45;;;10.30;;
40945;SDS011;55635;50.264;11.918;2023-01-20T16:54:52;38.95;;;19.25;;
40945;SDS011;55635;50.264;11.918;2023-01-20T16:57:33;44.15;;;21.27;;
40945;SDS011;55635;50.264;11.918;2023-01-20T17:00:14;55.00;;;24.10;;
40945;SDS011;55635;50.264;11.918;2023-01-20T17:02:56;73.72;;;32.60;;
40945;SDS011;55635;50.264;11.918;2023-01-20T17:05:37;107.55;;;51.00;;
40945;SDS011;55635;50.264;11.918;2023-01-20T17:08:19;117.35;;;58.55;;
40945;SDS011;55635;50.264;11.918;2023-01-20T17:11:00;55.17;;;27.85;;
40945;SDS011;55635;50.264;11.918;2023-01-20T17:13:41;73.43;;;41.00;;
40945;SDS011;55635;50.264;11.918;2023-01-20T17:16:22;38.53;;;22.20;;
40945;SDS011;55635;50.264;11.918;2023-01-20T17:19:05;31.77;;;17.55;;
40945;SDS011;55635;50.264;11.918;2023-01-20T17:21:46;28.55;;;15.73;;
40945;SDS011;55635;50.264;11.918;2023-01-20T17:24:27;32.55;;;17.40;;